Temp: 7.9°C   Baro: 1005.4mb
  Wind: 2.9mph   Dir: W (273°)
  Rain: 0.8mm (0.0mm/hr)
  Sun: 0W/m2  Humidity: 94%

Historic data

Bath Spa Weather Station Historical Data
Daily Summary for October 10, 2022 Units:  Both    English   Metric
Daily Weekly Monthly Yearly Custom
  High: Low: Average:
Temperature: 61.2 °F /  16.2 °C 42.4 °F /  5.8 °C 53.7 °F /  12.1 °C
Dew Point: 53.1 °F /  11.7 °C 38.8 °F /  3.8 °C 46.7 °F /  8.2 °C
Humidity: 93% 55.4% 78%
Wind Speed: 9.2mph /  14.8km/h - 2.3mph /  3.7km/h
Wind Gust: 22mph /  35.4km/h - -
Wind- - SW
Pressure: 30.35 in /  1027.7 hPa 29.85 in /  1010.7 hPa -
Precipitation: 0.07 in /  1.78 mm    
Historical Graphs
 
 
Tabular Data for October 10, 2022
Time Temperature Dew Point Pressure Wind Wind Speed Wind Gust Humidity Rainfall Rate (Hourly) solar
00:09 54.9 °F /  12.7 °C 48.6 °F /  9.2 °C 29.86in /  1011.1hPa Calm     79% 0.00in /  0mm 0 W/m2
00:14 54.9 °F /  12.7 °C 48.6 °F /  9.2 °C 29.86in /  1011.1hPa Calm     79% 0.00in /  0mm 0 W/m2
00:19 54.9 °F /  12.7 °C 48.6 °F /  9.2 °C 29.86in /  1011.1hPa Calm     79% 0.00in /  0mm 0 W/m2
00:24 54.9 °F /  12.7 °C 48.7 °F /  9.3 °C 29.86in /  1011.1hPa Calm     80% 0.00in /  0mm 0 W/m2
00:29 54.9 °F /  12.7 °C 48.7 °F /  9.3 °C 29.86in /  1011.1hPa Calm     80% 0.00in /  0mm 0 W/m2
00:34 54.9 °F /  12.7 °C 48.9 °F /  9.4 °C 29.85in /  1010.7hPa East 0.4mph /  0.6km/h 2mph /  3.2km/h 80.2% 0.00in /  0mm 0 W/m2
00:39 55.2 °F /  12.9 °C 49.5 °F /  9.7 °C 29.85in /  1010.7hPa East 0.4mph /  0.6km/h 2mph /  3.2km/h 81% 0.00in /  0mm 0 W/m2
00:44 55.4 °F /  13 °C 49.6 °F /  9.8 °C 29.85in /  1010.7hPa East 0.2mph /  0.3km/h 1mph /  1.6km/h 81% 0.00in /  0mm 0 W/m2
00:49 55.4 °F /  13 °C 49.6 °F /  9.8 °C 29.85in /  1010.7hPa East 0.2mph /  0.3km/h 1mph /  1.6km/h 81% 0.00in /  0mm 0 W/m2
00:54 55.4 °F /  13 °C 49.6 °F /  9.8 °C 29.85in /  1010.7hPa Calm     81% 0.00in /  0mm 0 W/m2
00:59 55.6 °F /  13.1 °C 49.8 °F /  9.9 °C 29.85in /  1010.7hPa Calm     81.2% 0.00in /  0mm 0 W/m2
01:04 55.6 °F /  13.1 °C 50.2 °F /  10.1 °C 29.85in /  1010.7hPa Calm     82% 0.01in /  0.25mm 0 W/m2
01:09 55.6 °F /  13.1 °C 50.4 °F /  10.2 °C 29.85in /  1010.7hPa East 1.8mph /  2.9km/h 2mph /  3.2km/h 82.6% 0.01in /  0.25mm 0 W/m2
01:14 55.4 °F /  13 °C 50.5 °F /  10.3 °C 29.85in /  1010.7hPa East 1.8mph /  2.9km/h 3mph /  4.8km/h 83.4% 0.01in /  0.25mm 0 W/m2
01:19 55.3 °F /  12.9 °C 50.7 °F /  10.4 °C 29.85in /  1010.7hPa East 1.8mph /  2.9km/h 2mph /  3.2km/h 84.2% 0.01in /  0.25mm 0 W/m2
01:24 55.2 °F /  12.9 °C 50.7 °F /  10.4 °C 29.85in /  1010.7hPa East 1.8mph /  2.9km/h 3mph /  4.8km/h 85% 0.01in /  0.25mm 0 W/m2
01:29 55 °F /  12.8 °C 50.8 °F /  10.4 °C 29.85in /  1010.7hPa East 0.8mph /  1.3km/h 3mph /  4.8km/h 85.8% 0.01in /  0.25mm 0 W/m2
01:34 55 °F /  12.8 °C 50.9 °F /  10.5 °C 29.85in /  1010.7hPa Calm   2mph /  3.2km/h 86% 0.01in /  0.25mm 0 W/m2
01:39 54.9 °F /  12.7 °C 51.1 °F /  10.6 °C 29.85in /  1010.7hPa Calm   1mph /  1.6km/h 87% 0.01in /  0.25mm 0 W/m2
01:44 54.9 °F /  12.7 °C 51.1 °F /  10.6 °C 29.85in /  1010.7hPa Calm     87% 0.01in /  0.25mm 0 W/m2
01:49 54.8 °F /  12.7 °C 51.1 °F /  10.6 °C 29.85in /  1010.7hPa Calm     87.2% 0.01in /  0.25mm 0 W/m2
01:54 54.8 °F /  12.7 °C 51.3 °F /  10.7 °C 29.85in /  1010.7hPa Calm     88% 0.01in /  0.25mm 0 W/m2
01:59 54.7 °F /  12.6 °C 51.3 °F /  10.7 °C 29.85in /  1010.7hPa Calm     88% 0.01in /  0.25mm 0 W/m2
02:04 54.7 °F /  12.6 °C 51.3 °F /  10.7 °C 29.85in /  1010.7hPa Calm     88% 0.01in /  0.25mm 0 W/m2
02:09 54.6 °F /  12.6 °C 51.2 °F /  10.7 °C 29.85in /  1010.7hPa East 1mph /  1.6km/h 2mph /  3.2km/h 88% 0.00in /  0mm 0 W/m2
02:14 54.5 °F /  12.5 °C 51.3 °F /  10.7 °C 29.85in /  1010.7hPa East 1.7mph /  2.7km/h 3mph /  4.8km/h 89% 0.00in /  0mm 0 W/m2
02:19 54.6 °F /  12.6 °C 51.4 °F /  10.8 °C 29.85in /  1010.7hPa East 1.2mph /  1.9km/h 3mph /  4.8km/h 89% 0.00in /  0mm 0 W/m2
02:24 54.7 °F /  12.6 °C 51.4 °F /  10.8 °C 29.85in /  1010.7hPa East 0.5mph /  0.8km/h 2mph /  3.2km/h 89% 0.00in /  0mm 0 W/m2
02:29 54.7 °F /  12.6 °C 51.4 °F /  10.8 °C 29.85in /  1010.7hPa East 0.2mph /  0.3km/h 2mph /  3.2km/h 89% 0.00in /  0mm 0 W/m2
02:34 54.7 °F /  12.6 °C 51.6 °F /  10.9 °C 29.85in /  1010.7hPa NE 2mph /  3.2km/h 4mph /  6.4km/h 89.6% 0.00in /  0mm 0 W/m2
02:39 54.9 °F /  12.7 °C 52 °F /  11.1 °C 29.85in /  1010.7hPa NW 2.6mph /  4.2km/h 4mph /  6.4km/h 90% 0.00in /  0mm 0 W/m2
02:43 55 °F /  12.8 °C 52.2 °F /  11.2 °C 29.85in /  1010.7hPa NW 1.2mph /  1.9km/h 4mph /  6.4km/h 90% 0.00in /  0mm 0 W/m2
02:49 55.2 °F /  12.9 °C 52.3 °F /  11.3 °C 29.85in /  1010.7hPa Calm   2mph /  3.2km/h 90% 0.00in /  0mm 0 W/m2
02:54 55.2 °F /  12.9 °C 52.3 °F /  11.3 °C 29.86in /  1011.1hPa Calm     90% 0.00in /  0mm 0 W/m2
02:59 55.2 °F /  12.9 °C 52.3 °F /  11.3 °C 29.86in /  1011.1hPa Calm     90% 0.00in /  0mm 0 W/m2
03:04 55.2 °F /  12.9 °C 52.3 °F /  11.3 °C 29.86in /  1011.1hPa Calm     90% 0.00in /  0mm 0 W/m2
03:09 55.2 °F /  12.9 °C 52.3 °F /  11.3 °C 29.86in /  1011.1hPa Calm     90% 0.00in /  0mm 0 W/m2
03:14 55.2 °F /  12.9 °C 52.3 °F /  11.3 °C 29.86in /  1011.1hPa Calm     90% 0.00in /  0mm 0 W/m2
03:19 55.1 °F /  12.8 °C 52.3 °F /  11.3 °C 29.86in /  1011.1hPa Calm     90% 0.00in /  0mm 0 W/m2
03:24 55 °F /  12.8 °C 52.2 °F /  11.2 °C 29.86in /  1011.1hPa Calm     90% 0.00in /  0mm 0 W/m2
03:29 55 °F /  12.8 °C 52.2 °F /  11.2 °C 29.86in /  1011.1hPa Calm     90% 0.00in /  0mm 0 W/m2
03:34 54.9 °F /  12.7 °C 52 °F /  11.1 °C 29.86in /  1011.1hPa Calm     90% 0.00in /  0mm 0 W/m2
03:39 54.9 °F /  12.7 °C 52.1 °F /  11.2 °C 29.86in /  1011.1hPa Calm     90.2% 0.00in /  0mm 0 W/m2
03:44 54.8 °F /  12.7 °C 52.3 °F /  11.3 °C 29.86in /  1011.1hPa Calm     91% 0.01in /  0.25mm 0 W/m2
03:49 54.8 °F /  12.7 °C 52.2 °F /  11.2 °C 29.86in /  1011.1hPa Calm     91% 0.02in /  0.51mm 0 W/m2
03:54 54.8 °F /  12.7 °C 52.2 °F /  11.2 °C 29.86in /  1011.1hPa Calm     91% 0.02in /  0.51mm 0 W/m2
03:59 54.7 °F /  12.6 °C 52.2 °F /  11.2 °C 29.86in /  1011.1hPa Calm     91% 0.02in /  0.51mm 0 W/m2
04:04 54.7 °F /  12.6 °C 52.2 °F /  11.2 °C 29.86in /  1011.1hPa Calm     91% 0.02in /  0.51mm 0 W/m2
04:09 54.7 °F /  12.6 °C 52.2 °F /  11.2 °C 29.86in /  1011.1hPa Calm     91% 0.03in /  0.76mm 0 W/m2
04:14 54.7 °F /  12.6 °C 52.2 °F /  11.2 °C 29.86in /  1011.1hPa Calm     91% 0.03in /  0.76mm 0 W/m2
04:19 54.7 °F /  12.6 °C 52.2 °F /  11.2 °C 29.86in /  1011.1hPa Calm     91% 0.03in /  0.76mm 0 W/m2
04:24 54.7 °F /  12.6 °C 52.2 °F /  11.2 °C 29.86in /  1011.1hPa Calm     91% 0.03in /  0.76mm 0 W/m2
04:29 54.7 °F /  12.6 °C 52.2 °F /  11.2 °C 29.86in /  1011.1hPa Calm     91% 0.03in /  0.76mm 0 W/m2
04:34 54.7 °F /  12.6 °C 52.2 °F /  11.2 °C 29.86in /  1011.1hPa Calm     91% 0.03in /  0.76mm 0 W/m2
04:39 54.7 °F /  12.6 °C 52.2 °F /  11.2 °C 29.86in /  1011.1hPa Calm     91% 0.03in /  0.76mm 0 W/m2
04:44 54.7 °F /  12.6 °C 52.2 °F /  11.2 °C 29.87in /  1011.4hPa Calm     91% 0.03in /  0.76mm 0 W/m2
04:49 54.7 °F /  12.6 °C 52.2 °F /  11.2 °C 29.87in /  1011.4hPa Calm     91% 0.02in /  0.51mm 0 W/m2
04:54 54.7 °F /  12.6 °C 52.3 °F /  11.3 °C 29.87in /  1011.4hPa Calm     92% 0.02in /  0.51mm 0 W/m2
04:59 54.7 °F /  12.6 °C 52.3 °F /  11.3 °C 29.88in /  1011.7hPa Calm     92% 0.02in /  0.51mm 0 W/m2
05:04 54.7 °F /  12.6 °C 52.3 °F /  11.3 °C 29.88in /  1011.7hPa Calm     92% 0.02in /  0.51mm 0 W/m2
05:09 54.7 °F /  12.6 °C 52.3 °F /  11.3 °C 29.88in /  1011.7hPa Calm     92% 0.02in /  0.51mm 0 W/m2
05:14 54.7 °F /  12.6 °C 52.3 °F /  11.3 °C 29.88in /  1011.7hPa Calm     92% 0.01in /  0.25mm 0 W/m2
05:19 54.7 °F /  12.6 °C 52.3 °F /  11.3 °C 29.88in /  1011.7hPa Calm     92% 0.01in /  0.25mm 0 W/m2
05:24 54.7 °F /  12.6 °C 52.3 °F /  11.3 °C 29.88in /  1011.7hPa Calm     92% 0.01in /  0.25mm 0 W/m2
05:29 54.8 °F /  12.7 °C 52.4 °F /  11.3 °C 29.89in /  1012.1hPa NW 0.8mph /  1.3km/h 3mph /  4.8km/h 92% 0.01in /  0.25mm 0 W/m2
05:34 54.9 °F /  12.7 °C 52.5 °F /  11.4 °C 29.89in /  1012.1hPa NW 1.2mph /  1.9km/h 3mph /  4.8km/h 92% 0.01in /  0.25mm 0 W/m2
05:39 55 °F /  12.8 °C 52.6 °F /  11.4 °C 29.89in /  1012.1hPa NW 1.2mph /  1.9km/h 3mph /  4.8km/h 92% 0.02in /  0.51mm 0 W/m2
05:44 55 °F /  12.8 °C 52.8 °F /  11.6 °C 29.90in /  1012.4hPa NW 2.6mph /  4.2km/h 7mph /  11.3km/h 92.4% 0.02in /  0.51mm 0 W/m2
05:49 55 °F /  12.8 °C 53.1 °F /  11.7 °C 29.90in /  1012.4hPa NW 4.5mph /  7.2km/h 11mph /  17.7km/h 93% 0.02in /  0.51mm 0 W/m2
05:54 54.7 °F /  12.6 °C 52.7 °F /  11.5 °C 29.91in /  1012.8hPa NNW 7.4mph /  11.9km/h 17mph /  27.4km/h 93% 0.02in /  0.51mm 0 W/m2
05:59 54.2 °F /  12.3 °C 52.3 °F /  11.3 °C 29.91in /  1012.8hPa NNW 5.3mph /  8.5km/h 15mph /  24.1km/h 93% 0.02in /  0.51mm 0 W/m2
06:04 54 °F /  12.2 °C 52 °F /  11.1 °C 29.92in /  1013.1hPa NNW 5.3mph /  8.5km/h 15mph /  24.1km/h 93% 0.02in /  0.51mm 0 W/m2
06:09 53.8 °F /  12.1 °C 51.8 °F /  11 °C 29.93in /  1013.4hPa NNW 8.4mph /  13.5km/h 16mph /  25.7km/h 93% 0.02in /  0.51mm 0 W/m2
06:14 52.5 °F /  11.4 °C 50.6 °F /  10.3 °C 29.93in /  1013.4hPa North 7.4mph /  11.9km/h 22mph /  35.4km/h 93% 0.02in /  0.51mm 0 W/m2
06:19 51 °F /  10.6 °C 49 °F /  9.4 °C 29.93in /  1013.4hPa NE 6mph /  9.7km/h 15mph /  24.1km/h 92.6% 0.02in /  0.51mm 0 W/m2
06:24 50.1 °F /  10.1 °C 48 °F /  8.9 °C 29.94in /  1013.8hPa NNW 9.2mph /  14.8km/h 19mph /  30.6km/h 92% 0.02in /  0.51mm 0 W/m2
06:29 49.5 °F /  9.7 °C 47.3 °F /  8.5 °C 29.94in /  1013.8hPa North 6.2mph /  10km/h 17mph /  27.4km/h 92% 0.02in /  0.51mm 0 W/m2
06:34 49.3 °F /  9.6 °C 47.1 °F /  8.4 °C 29.95in /  1014.1hPa NNE 7mph /  11.3km/h 15mph /  24.1km/h 92% 0.02in /  0.51mm 0 W/m2
06:39 49.2 °F /  9.6 °C 47 °F /  8.3 °C 29.96in /  1014.4hPa NNE 3.1mph /  5km/h 9mph /  14.5km/h 92% 0.02in /  0.51mm 0 W/m2
06:44 49.1 °F /  9.5 °C 46.9 °F /  8.3 °C 29.96in /  1014.4hPa NNE 2.9mph /  4.7km/h 9mph /  14.5km/h 92% 0.02in /  0.51mm 0 W/m2
06:49 48.9 °F /  9.4 °C 46.8 °F /  8.2 °C 29.96in /  1014.4hPa NNE 2.3mph /  3.7km/h 10mph /  16.1km/h 92% 0.02in /  0.51mm 0 W/m2
06:54 48.9 °F /  9.4 °C 46.8 °F /  8.2 °C 29.96in /  1014.4hPa North 1.7mph /  2.7km/h 8mph /  12.9km/h 92% 0.01in /  0.25mm 0 W/m2
06:59 49.1 °F /  9.5 °C 46.9 °F /  8.3 °C 29.97in /  1014.8hPa ESE 1mph /  1.6km/h 4mph /  6.4km/h 92% 0.01in /  0.25mm 0 W/m2
07:04 49.1 °F /  9.5 °C 46.9 °F /  8.3 °C 29.97in /  1014.8hPa NNE 3.2mph /  5.1km/h 7mph /  11.3km/h 92% 0.01in /  0.25mm 0 W/m2
07:09 49.1 °F /  9.5 °C 46.9 °F /  8.3 °C 29.98in /  1015.1hPa NNE 1.9mph /  3.1km/h 5mph /  8km/h 92% 0.01in /  0.25mm 0 W/m2
07:14 49.3 °F /  9.6 °C 47.1 °F /  8.4 °C 29.98in /  1015.1hPa NE 2.4mph /  3.9km/h 6mph /  9.7km/h 92% 0.01in /  0.25mm 0 W/m2
07:19 49.3 °F /  9.6 °C 47.1 °F /  8.4 °C 29.98in /  1015.1hPa NW 2.1mph /  3.4km/h 6mph /  9.7km/h 92% 0.00in /  0mm 0 W/m2
07:24 49.3 °F /  9.6 °C 47 °F /  8.3 °C 29.99in /  1015.5hPa NNE 0.8mph /  1.3km/h 5mph /  8km/h 91.6% 0.00in /  0mm 0 W/m2
07:29 49.3 °F /  9.6 °C 46.8 °F /  8.2 °C 29.99in /  1015.5hPa NNE 0.5mph /  0.8km/h 3mph /  4.8km/h 91% 0.00in /  0mm 0 W/m2
07:34 49.3 °F /  9.6 °C 46.8 °F /  8.2 °C 30.00in /  1015.8hPa NNE 0.4mph /  0.6km/h 3mph /  4.8km/h 91% 0.00in /  0mm 0 W/m2
07:39 49.4 °F /  9.7 °C 46.9 °F /  8.3 °C 30.00in /  1015.8hPa NNE 0.8mph /  1.3km/h 2mph /  3.2km/h 91% 0.00in /  0mm 5 W/m2
07:44 49.4 °F /  9.7 °C 46.8 °F /  8.2 °C 30.00in /  1015.8hPa North 0.4mph /  0.6km/h 3mph /  4.8km/h 91% 0.00in /  0mm 7 W/m2
07:49 49.4 °F /  9.7 °C 46.8 °F /  8.2 °C 30.01in /  1016.1hPa North 1mph /  1.6km/h 3mph /  4.8km/h 91% 0.00in /  0mm 11 W/m2
07:54 49.4 °F /  9.7 °C 46.9 °F /  8.3 °C 30.01in /  1016.1hPa North 0.2mph /  0.3km/h 2mph /  3.2km/h 91% 0.00in /  0mm 16 W/m2
07:59 49.5 °F /  9.7 °C 46.9 °F /  8.3 °C 30.01in /  1016.1hPa North 0.4mph /  0.6km/h 3mph /  4.8km/h 91% 0.00in /  0mm 21 W/m2
08:04 49.5 °F /  9.7 °C 46.9 °F /  8.3 °C 30.01in /  1016.1hPa Calm   3mph /  4.8km/h 91% 0.00in /  0mm 40 W/m2
08:09 49.6 °F /  9.8 °C 47 °F /  8.3 °C 30.02in /  1016.5hPa North 0.5mph /  0.8km/h 2mph /  3.2km/h 91% 0.00in /  0mm 37 W/m2
08:14 49.6 °F /  9.8 °C 46.9 °F /  8.3 °C 30.02in /  1016.5hPa North 0.2mph /  0.3km/h 3mph /  4.8km/h 90.6% 0.00in /  0mm 39 W/m2
08:19 49.4 °F /  9.7 °C 46.5 °F /  8.1 °C 30.02in /  1016.5hPa WNW 2.7mph /  4.3km/h 5mph /  8km/h 90% 0.00in /  0mm 26 W/m2
08:24 49.1 °F /  9.5 °C 46.2 °F /  7.9 °C 30.03in /  1016.8hPa WNW 2.5mph /  4km/h 4mph /  6.4km/h 90% 0.00in /  0mm 23 W/m2
08:29 48.9 °F /  9.4 °C 46 °F /  7.8 °C 30.03in /  1016.8hPa NW 1mph /  1.6km/h 4mph /  6.4km/h 90% 0.00in /  0mm 46 W/m2
08:34 48.9 °F /  9.4 °C 46 °F /  7.8 °C 30.04in /  1017.2hPa NW 0.2mph /  0.3km/h 2mph /  3.2km/h 90% 0.00in /  0mm 54 W/m2
08:39 49.1 °F /  9.5 °C 46.2 °F /  7.9 °C 30.04in /  1017.2hPa NW 1.2mph /  1.9km/h 3mph /  4.8km/h 90% 0.00in /  0mm 65 W/m2
08:44 49.4 °F /  9.7 °C 46.5 °F /  8.1 °C 30.04in /  1017.2hPa WNW 2.4mph /  3.9km/h 5mph /  8km/h 90% 0.00in /  0mm 77 W/m2
08:49 49.4 °F /  9.7 °C 46.5 °F /  8.1 °C 30.05in /  1017.5hPa WNW 2mph /  3.2km/h 5mph /  8km/h 90% 0.00in /  0mm 90 W/m2
08:54 49.5 °F /  9.7 °C 46.6 °F /  8.1 °C 30.05in /  1017.5hPa NNW 1.4mph /  2.3km/h 5mph /  8km/h 90% 0.00in /  0mm 102 W/m2
08:59 49.6 °F /  9.8 °C 46.8 °F /  8.2 °C 30.05in /  1017.5hPa NW 2.9mph /  4.7km/h 5mph /  8km/h 90% 0.00in /  0mm 116 W/m2
09:04 49.7 °F /  9.8 °C 46.9 °F /  8.3 °C 30.06in /  1017.8hPa North 3.8mph /  6.1km/h 7mph /  11.3km/h 90% 0.00in /  0mm 132 W/m2
09:09 50 °F /  10 °C 47 °F /  8.3 °C 30.06in /  1017.8hPa NNW 1.8mph /  2.9km/h 6mph /  9.7km/h 89.6% 0.00in /  0mm 146 W/m2
09:14 50.3 °F /  10.2 °C 47.2 °F /  8.4 °C 30.06in /  1017.8hPa WNW 2.8mph /  4.5km/h 6mph /  9.7km/h 89% 0.00in /  0mm 160 W/m2
09:19 50.4 °F /  10.2 °C 47.3 °F /  8.5 °C 30.07in /  1018.2hPa NW 3.2mph /  5.1km/h 6mph /  9.7km/h 89% 0.00in /  0mm 174 W/m2
09:24 50.4 °F /  10.2 °C 47.2 °F /  8.4 °C 30.07in /  1018.2hPa NW 3.3mph /  5.3km/h 11mph /  17.7km/h 88.6% 0.00in /  0mm 185 W/m2
09:29 50.5 °F /  10.3 °C 47.1 °F /  8.4 °C 30.08in /  1018.5hPa WNW 2mph /  3.2km/h 6mph /  9.7km/h 88% 0.00in /  0mm 197 W/m2
09:34 51 °F /  10.6 °C 47.5 °F /  8.6 °C 30.08in /  1018.5hPa NNW 3.5mph /  5.6km/h 9mph /  14.5km/h 87.8% 0.00in /  0mm 209 W/m2
09:39 50.9 °F /  10.5 °C 47.1 °F /  8.4 °C 30.08in /  1018.5hPa WNW 3.3mph /  5.3km/h 9mph /  14.5km/h 87% 0.00in /  0mm 221 W/m2
09:44 51.1 °F /  10.6 °C 47.2 °F /  8.4 °C 30.08in /  1018.5hPa NW 4mph /  6.4km/h 7mph /  11.3km/h 86.6% 0.00in /  0mm 234 W/m2
09:49 51.1 °F /  10.6 °C 47 °F /  8.3 °C 30.09in /  1018.8hPa NW 5mph /  8km/h 9mph /  14.5km/h 85.6% 0.00in /  0mm 244 W/m2
09:54 51.3 °F /  10.7 °C 46.9 °F /  8.3 °C 30.09in /  1018.8hPa NW 3.2mph /  5.1km/h 5mph /  8km/h 85% 0.00in /  0mm 258 W/m2
09:59 51.7 °F /  10.9 °C 47 °F /  8.3 °C 30.09in /  1018.8hPa NW 1.2mph /  1.9km/h 5mph /  8km/h 84% 0.00in /  0mm 267 W/m2
10:04 52.1 °F /  11.2 °C 47.2 °F /  8.4 °C 30.09in /  1018.8hPa NNW 4.9mph /  7.9km/h 10mph /  16.1km/h 83.4% 0.00in /  0mm 278 W/m2
10:09 52 °F /  11.1 °C 46.6 °F /  8.1 °C 30.09in /  1018.8hPa North 3.2mph /  5.1km/h 6mph /  9.7km/h 82% 0.00in /  0mm 287 W/m2
10:14 52.7 °F /  11.5 °C 47.2 °F /  8.4 °C 30.09in /  1018.8hPa NNE 2.6mph /  4.2km/h 9mph /  14.5km/h 81.8% 0.00in /  0mm 299 W/m2
10:19 53.3 °F /  11.8 °C 47.5 °F /  8.6 °C 30.10in /  1019.2hPa WNW 1.7mph /  2.7km/h 6mph /  9.7km/h 80.6% 0.00in /  0mm 306 W/m2
10:24 53.4 °F /  11.9 °C 47.4 °F /  8.6 °C 30.10in /  1019.2hPa WNW 1.6mph /  2.6km/h 4mph /  6.4km/h 79.8% 0.00in /  0mm 318 W/m2
10:29 53.3 °F /  11.8 °C 47 °F /  8.3 °C 30.10in /  1019.2hPa NW 4.1mph /  6.6km/h 8mph /  12.9km/h 79% 0.00in /  0mm 327 W/m2
10:34 53.1 °F /  11.7 °C 46.6 °F /  8.1 °C 30.10in /  1019.2hPa NW 4mph /  6.4km/h 9mph /  14.5km/h 78.4% 0.00in /  0mm 339 W/m2
10:39 53.1 °F /  11.7 °C 46.5 °F /  8.1 °C 30.10in /  1019.2hPa NW 4.8mph /  7.7km/h 10mph /  16.1km/h 78% 0.00in /  0mm 350 W/m2
10:44 53.2 °F /  11.8 °C 46.3 °F /  7.9 °C 30.11in /  1019.5hPa NW 5mph /  8km/h 11mph /  17.7km/h 77.2% 0.00in /  0mm 359 W/m2
10:49 53.2 °F /  11.8 °C 46 °F /  7.8 °C 30.11in /  1019.5hPa NW 4.2mph /  6.8km/h 13mph /  20.9km/h 76.4% 0.00in /  0mm 366 W/m2
10:54 53.4 °F /  11.9 °C 45.9 °F /  7.7 °C 30.11in /  1019.5hPa NW 3.5mph /  5.6km/h 7mph /  11.3km/h 75.6% 0.00in /  0mm 374 W/m2
10:59 53.8 °F /  12.1 °C 45.9 °F /  7.7 °C 30.11in /  1019.5hPa NNW 4.3mph /  6.9km/h 8mph /  12.9km/h 74.8% 0.00in /  0mm 383 W/m2
11:04 54 °F /  12.2 °C 45.9 °F /  7.7 °C 30.11in /  1019.5hPa NNW 4.7mph /  7.6km/h 10mph /  16.1km/h 74% 0.00in /  0mm 390 W/m2
11:09 54.1 °F /  12.3 °C 45.8 °F /  7.7 °C 30.11in /  1019.5hPa NNW 6.8mph /  10.9km/h 11mph /  17.7km/h 73.4% 0.00in /  0mm 404 W/m2
11:14 54.4 °F /  12.4 °C 45.9 °F /  7.7 °C 30.12in /  1019.9hPa North 3.7mph /  6km/h 11mph /  17.7km/h 73% 0.00in /  0mm 411 W/m2
11:19 54.7 °F /  12.6 °C 46.2 °F /  7.9 °C 30.12in /  1019.9hPa NNW 3.9mph /  6.3km/h 8mph /  12.9km/h 73% 0.00in /  0mm 420 W/m2
11:24 54.8 °F /  12.7 °C 46.1 °F /  7.8 °C 30.12in /  1019.9hPa North 7.4mph /  11.9km/h 11mph /  17.7km/h 72.4% 0.00in /  0mm 427 W/m2
11:29 54.8 °F /  12.7 °C 46 °F /  7.8 °C 30.12in /  1019.9hPa NNW 6.4mph /  10.3km/h 12mph /  19.3km/h 72% 0.00in /  0mm 432 W/m2
11:34 55 °F /  12.8 °C 46.2 °F /  7.9 °C 30.12in /  1019.9hPa NW 3.5mph /  5.6km/h 9mph /  14.5km/h 72% 0.00in /  0mm 445 W/m2
11:39 55.5 °F /  13.1 °C 46.9 °F /  8.3 °C 30.13in /  1020.2hPa NNW 3.7mph /  6km/h 7mph /  11.3km/h 72.6% 0.00in /  0mm 448 W/m2
11:44 55.7 °F /  13.2 °C 46.9 °F /  8.3 °C 30.13in /  1020.2hPa WNW 5.3mph /  8.5km/h 11mph /  17.7km/h 72% 0.00in /  0mm 457 W/m2
11:49 55.7 °F /  13.2 °C 46.6 °F /  8.1 °C 30.13in /  1020.2hPa NW 4.5mph /  7.2km/h 11mph /  17.7km/h 71.4% 0.00in /  0mm 461 W/m2
11:54 55.8 °F /  13.2 °C 46.6 °F /  8.1 °C 30.13in /  1020.2hPa North 4.8mph /  7.7km/h 11mph /  17.7km/h 71% 0.00in /  0mm 462 W/m2
11:59 56.5 °F /  13.6 °C 46.9 °F /  8.3 °C 30.14in /  1020.5hPa NW 3.2mph /  5.1km/h 7mph /  11.3km/h 70.4% 0.00in /  0mm 468 W/m2
12:04 56.6 °F /  13.7 °C 46.5 °F /  8.1 °C 30.14in /  1020.5hPa NW 6mph /  9.7km/h 12mph /  19.3km/h 69.2% 0.00in /  0mm 473 W/m2
12:09 56.9 °F /  13.8 °C 46.8 °F /  8.2 °C 30.14in /  1020.5hPa NW 3mph /  4.8km/h 7mph /  11.3km/h 69% 0.00in /  0mm 478 W/m2
12:14 57.2 °F /  14 °C 46.8 °F /  8.2 °C 30.14in /  1020.5hPa NNW 3.6mph /  5.8km/h 8mph /  12.9km/h 68.2% 0.00in /  0mm 483 W/m2
12:19 58.1 °F /  14.5 °C 47.8 °F /  8.8 °C 30.15in /  1020.9hPa North 4.4mph /  7.1km/h 10mph /  16.1km/h 68.4% 0.00in /  0mm 485 W/m2
12:24 57.9 °F /  14.4 °C 46.9 °F /  8.3 °C 30.15in /  1020.9hPa NNW 5.6mph /  9km/h 15mph /  24.1km/h 66.6% 0.00in /  0mm 490 W/m2
12:29 57.6 °F /  14.2 °C 46.1 °F /  7.8 °C 30.15in /  1020.9hPa NNW 7.9mph /  12.7km/h 14mph /  22.5km/h 65.6% 0.00in /  0mm 490 W/m2
12:34 57.6 °F /  14.2 °C 45.8 °F /  7.7 °C 30.15in /  1020.9hPa North 8.6mph /  13.8km/h 13mph /  20.9km/h 64.8% 0.00in /  0mm 492 W/m2
12:39 57.7 °F /  14.3 °C 45.8 °F /  7.7 °C 30.15in /  1020.9hPa North 9mph /  14.5km/h 15mph /  24.1km/h 64.6% 0.00in /  0mm 496 W/m2
12:44 57.7 °F /  14.3 °C 45.7 °F /  7.6 °C 30.15in /  1020.9hPa NW 5.8mph /  9.3km/h 12mph /  19.3km/h 64.4% 0.00in /  0mm 497 W/m2
12:49 57.7 °F /  14.3 °C 45.7 °F /  7.6 °C 30.15in /  1020.9hPa NNW 7.4mph /  11.9km/h 14mph /  22.5km/h 64% 0.00in /  0mm 499 W/m2
12:54 58.1 °F /  14.5 °C 46.1 °F /  7.8 °C 30.15in /  1020.9hPa North 6.6mph /  10.6km/h 10mph /  16.1km/h 64% 0.00in /  0mm 499 W/m2
12:59 58.5 °F /  14.7 °C 46.4 °F /  8 °C 30.15in /  1020.9hPa North 4.4mph /  7.1km/h 10mph /  16.1km/h 64% 0.00in /  0mm 506 W/m2
13:04 58.8 °F /  14.9 °C 46.3 °F /  7.9 °C 30.16in /  1021.2hPa NNW 4.8mph /  7.7km/h 9mph /  14.5km/h 63.4% 0.00in /  0mm 504 W/m2
13:09 58.4 °F /  14.7 °C 45.9 °F /  7.7 °C 30.16in /  1021.2hPa NNW 5.4mph /  8.7km/h 13mph /  20.9km/h 63.2% 0.00in /  0mm 515 W/m2
13:14 58.3 °F /  14.6 °C 46 °F /  7.8 °C 30.16in /  1021.2hPa NNW 6.7mph /  10.8km/h 12mph /  19.3km/h 63.6% 0.00in /  0mm 529 W/m2
13:19 58.8 °F /  14.9 °C 46.2 °F /  7.9 °C 30.16in /  1021.2hPa North 5.6mph /  9km/h 11mph /  17.7km/h 63% 0.00in /  0mm 512 W/m2
13:24 59.8 °F /  15.4 °C 46.7 °F /  8.2 °C 30.16in /  1021.2hPa NW 3.8mph /  6.1km/h 8mph /  12.9km/h 62% 0.00in /  0mm 508 W/m2
13:29 59.9 °F /  15.5 °C 46 °F /  7.8 °C 30.16in /  1021.2hPa WNW 5.4mph /  8.7km/h 10mph /  16.1km/h 60% 0.00in /  0mm 522 W/m2
13:34 59.5 °F /  15.3 °C 45.8 °F /  7.7 °C 30.16in /  1021.2hPa NNW 4.4mph /  7.1km/h 12mph /  19.3km/h 60.2% 0.00in /  0mm 522 W/m2
13:39 60 °F /  15.6 °C 46.3 °F /  7.9 °C 30.16in /  1021.2hPa NW 4.4mph /  7.1km/h 13mph /  20.9km/h 60.6% 0.00in /  0mm 513 W/m2
13:44 60.1 °F /  15.6 °C 46 °F /  7.8 °C 30.16in /  1021.2hPa NW 5.6mph /  9km/h 11mph /  17.7km/h 59.6% 0.00in /  0mm 519 W/m2
13:49 59.8 °F /  15.4 °C 45.7 °F /  7.6 °C 30.16in /  1021.2hPa NNW 8.4mph /  13.5km/h 13mph /  20.9km/h 59.6% 0.00in /  0mm 520 W/m2
13:54 60 °F /  15.6 °C 46.3 °F /  7.9 °C 30.16in /  1021.2hPa North 4.4mph /  7.1km/h 10mph /  16.1km/h 60.4% 0.00in /  0mm 515 W/m2
13:59 59.7 °F /  15.4 °C 45.6 °F /  7.6 °C 30.16in /  1021.2hPa NNW 7.7mph /  12.4km/h 12mph /  19.3km/h 59.4% 0.00in /  0mm 501 W/m2
14:04 59.5 °F /  15.3 °C 45.5 °F /  7.5 °C 30.16in /  1021.2hPa North 7.8mph /  12.6km/h 13mph /  20.9km/h 59.8% 0.00in /  0mm 497 W/m2
14:09 59.7 °F /  15.4 °C 45.9 °F /  7.7 °C 30.16in /  1021.2hPa North 5.2mph /  8.4km/h 13mph /  20.9km/h 60% 0.00in /  0mm 482 W/m2
14:14 60.3 °F /  15.7 °C 46.5 °F /  8.1 °C 30.16in /  1021.2hPa NNW 4.9mph /  7.9km/h 10mph /  16.1km/h 60.2% 0.00in /  0mm 478 W/m2
14:19 60.3 °F /  15.7 °C 46.5 °F /  8.1 °C 30.16in /  1021.2hPa NNW 5.4mph /  8.7km/h 13mph /  20.9km/h 60.2% 0.00in /  0mm 482 W/m2
14:24 60.3 °F /  15.7 °C 46.8 °F /  8.2 °C 30.16in /  1021.2hPa NNW 3.7mph /  6km/h 9mph /  14.5km/h 61% 0.00in /  0mm 466 W/m2
14:29 60.4 °F /  15.8 °C 47.1 °F /  8.4 °C 30.16in /  1021.2hPa WNW 3.3mph /  5.3km/h 9mph /  14.5km/h 61.4% 0.00in /  0mm 459 W/m2
14:34 61 °F /  16.1 °C 47.2 °F /  8.4 °C 30.17in /  1021.6hPa NW 3.5mph /  5.6km/h 8mph /  12.9km/h 60.4% 0.00in /  0mm 454 W/m2
14:39 60.8 °F /  16 °C 46.9 °F /  8.3 °C 30.17in /  1021.6hPa NW 4.4mph /  7.1km/h 8mph /  12.9km/h 60.2% 0.00in /  0mm 455 W/m2
14:44 60.9 °F /  16.1 °C 46.5 °F /  8.1 °C 30.17in /  1021.6hPa North 4.3mph /  6.9km/h 8mph /  12.9km/h 59.2% 0.00in /  0mm 462 W/m2
14:49 60.8 °F /  16 °C 46.4 °F /  8 °C 30.17in /  1021.6hPa North 4.8mph /  7.7km/h 11mph /  17.7km/h 59% 0.00in /  0mm 436 W/m2
14:54 60.3 °F /  15.7 °C 46.2 °F /  7.9 °C 30.17in /  1021.6hPa NNW 5.2mph /  8.4km/h 11mph /  17.7km/h 59.6% 0.00in /  0mm 429 W/m2
14:59 60 °F /  15.6 °C 46.3 °F /  7.9 °C 30.17in /  1021.6hPa NW 4.4mph /  7.1km/h 15mph /  24.1km/h 60.6% 0.00in /  0mm 420 W/m2
15:04 60.7 °F /  15.9 °C 47 °F /  8.3 °C 30.17in /  1021.6hPa NNW 4mph /  6.4km/h 14mph /  22.5km/h 60.8% 0.00in /  0mm 418 W/m2
15:09 60.4 °F /  15.8 °C 46.4 °F /  8 °C 30.17in /  1021.6hPa NW 5.6mph /  9km/h 14mph /  22.5km/h 60% 0.00in /  0mm 410 W/m2
15:14 60.1 °F /  15.6 °C 46.6 °F /  8.1 °C 30.17in /  1021.6hPa NNW 7mph /  11.3km/h 12mph /  19.3km/h 61% 0.00in /  0mm 406 W/m2
15:19 60.2 °F /  15.7 °C 46.4 °F /  8 °C 30.17in /  1021.6hPa NW 8.4mph /  13.5km/h 14mph /  22.5km/h 60.2% 0.00in /  0mm 404 W/m2
15:24 60.3 °F /  15.7 °C 46.5 °F /  8.1 °C 30.17in /  1021.6hPa NNW 6.2mph /  10km/h 14mph /  22.5km/h 60.4% 0.00in /  0mm 390 W/m2
15:29 60.6 °F /  15.9 °C 46.6 °F /  8.1 °C 30.18in /  1021.9hPa NW 4mph /  6.4km/h 11mph /  17.7km/h 60% 0.00in /  0mm 378 W/m2
15:34 61 °F /  16.1 °C 46.6 °F /  8.1 °C 30.18in /  1021.9hPa NW 7.1mph /  11.4km/h 12mph /  19.3km/h 59.3% 0.00in /  0mm 367 W/m2
15:39 60.5 °F /  15.8 °C 45.8 °F /  7.7 °C 30.18in /  1021.9hPa NNW 6.1mph /  9.8km/h 15mph /  24.1km/h 58.2% 0.00in /  0mm 360 W/m2
15:44 60.6 °F /  15.9 °C 45.9 °F /  7.7 °C 30.18in /  1021.9hPa NNW 6.8mph /  10.9km/h 12mph /  19.3km/h 58.4% 0.00in /  0mm 350 W/m2
15:49 60.6 °F /  15.9 °C 45.4 °F /  7.4 °C 30.18in /  1021.9hPa NW 6.7mph /  10.8km/h 13mph /  20.9km/h 57.2% 0.00in /  0mm 343 W/m2
15:54 60.5 °F /  15.8 °C 45 °F /  7.2 °C 30.18in /  1021.9hPa NW 7.2mph /  11.6km/h 13mph /  20.9km/h 56.6% 0.00in /  0mm 329 W/m2
15:59 60.5 °F /  15.8 °C 45.1 °F /  7.3 °C 30.19in /  1022.2hPa North 6.4mph /  10.3km/h 13mph /  20.9km/h 56.8% 0.00in /  0mm 320 W/m2
16:04 60.8 °F /  16 °C 45.3 °F /  7.4 °C 30.19in /  1022.2hPa NNW 6.4mph /  10.3km/h 10mph /  16.1km/h 56.6% 0.00in /  0mm 308 W/m2
16:09 60.7 °F /  15.9 °C 45.2 °F /  7.3 °C 30.19in /  1022.2hPa NW 7mph /  11.3km/h 11mph /  17.7km/h 56.6% 0.00in /  0mm 295 W/m2
16:14 60.4 °F /  15.8 °C 44.6 °F /  7 °C 30.19in /  1022.2hPa NW 5.7mph /  9.2km/h 10mph /  16.1km/h 56.2% 0.00in /  0mm 279 W/m2
16:19 60.3 °F /  15.7 °C 44.9 °F /  7.2 °C 30.19in /  1022.2hPa NW 5.2mph /  8.4km/h 11mph /  17.7km/h 56.8% 0.00in /  0mm 267 W/m2
16:24 60.2 °F /  15.7 °C 44.4 °F /  6.9 °C 30.19in /  1022.2hPa WNW 5.6mph /  9km/h 12mph /  19.3km/h 56% 0.00in /  0mm 257 W/m2
16:29 60.2 °F /  15.7 °C 44.4 °F /  6.9 °C 30.19in /  1022.2hPa WNW 5.7mph /  9.2km/h 12mph /  19.3km/h 56% 0.00in /  0mm 244 W/m2
16:34 60.3 °F /  15.7 °C 44.3 °F /  6.8 °C 30.19in /  1022.2hPa NNW 6mph /  9.7km/h 12mph /  19.3km/h 55.4% 0.00in /  0mm 232 W/m2
16:39 60.5 °F /  15.8 °C 44.6 °F /  7 °C 30.20in /  1022.6hPa NNW 4.9mph /  7.9km/h 11mph /  17.7km/h 56% 0.00in /  0mm 220 W/m2
16:44 60.9 °F /  16.1 °C 45.5 °F /  7.5 °C 30.20in /  1022.6hPa North 3.8mph /  6.1km/h 10mph /  16.1km/h 56.8% 0.00in /  0mm 206 W/m2
16:49 61 °F /  16.1 °C 45.1 °F /  7.3 °C 30.20in /  1022.6hPa North 5.5mph /  8.9km/h 9mph /  14.5km/h 56% 0.00in /  0mm 188 W/m2
16:54 61.2 °F /  16.2 °C 45.6 °F /  7.6 °C 30.21in /  1022.9hPa North 2.9mph /  4.7km/h 10mph /  16.1km/h 56.4% 0.00in /  0mm 174 W/m2
16:59 60.9 °F /  16.1 °C 44.9 °F /  7.2 °C 30.21in /  1022.9hPa North 5.4mph /  8.7km/h 11mph /  17.7km/h 55.6% 0.00in /  0mm 162 W/m2
17:04 60.6 °F /  15.9 °C 45.2 °F /  7.3 °C 30.21in /  1022.9hPa NNW 2.8mph /  4.5km/h 8mph /  12.9km/h 56.8% 0.00in /  0mm 146 W/m2
17:09 60.6 °F /  15.9 °C 45.1 °F /  7.3 °C 30.21in /  1022.9hPa NNW 2.9mph /  4.7km/h 7mph /  11.3km/h 56.6% 0.00in /  0mm 132 W/m2
17:14 60.8 °F /  16 °C 45.5 °F /  7.5 °C 30.21in /  1022.9hPa North 3.3mph /  5.3km/h 8mph /  12.9km/h 57% 0.00in /  0mm 118 W/m2
17:19 60.4 °F /  15.8 °C 45.1 °F /  7.3 °C 30.22in /  1023.2hPa NNW 3.7mph /  6km/h 7mph /  11.3km/h 57% 0.00in /  0mm 104 W/m2
17:24 60.3 °F /  15.7 °C 45.4 °F /  7.4 °C 30.22in /  1023.2hPa NNW 2.7mph /  4.3km/h 5mph /  8km/h 57.8% 0.00in /  0mm 91 W/m2
17:29 60.4 °F /  15.8 °C 45.6 °F /  7.6 °C 30.22in /  1023.2hPa North 4.4mph /  7.1km/h 9mph /  14.5km/h 58% 0.00in /  0mm 79 W/m2
17:33 60.3 °F /  15.7 °C 45.6 °F /  7.6 °C 30.22in /  1023.2hPa NNW 2.7mph /  4.3km/h 5mph /  8km/h 58% 0.00in /  0mm 67 W/m2
17:39 60.1 °F /  15.6 °C 45.8 °F /  7.7 °C 30.22in /  1023.2hPa North 2.5mph /  4km/h 5mph /  8km/h 59.2% 0.00in /  0mm 58 W/m2
17:44 59.6 °F /  15.3 °C 45.2 °F /  7.3 °C 30.22in /  1023.2hPa North 3.6mph /  5.8km/h 8mph /  12.9km/h 59% 0.00in /  0mm 47 W/m2
17:49 59.4 °F /  15.2 °C 45.4 °F /  7.4 °C 30.22in /  1023.2hPa North 2.4mph /  3.9km/h 8mph /  12.9km/h 59.8% 0.00in /  0mm 37 W/m2
17:54 59.6 °F /  15.3 °C 46.1 °F /  7.8 °C 30.23in /  1023.6hPa North 1.8mph /  2.9km/h 4mph /  6.4km/h 61% 0.00in /  0mm 28 W/m2
17:59 59.9 °F /  15.5 °C 46.2 °F /  7.9 °C 30.23in /  1023.6hPa North 2.8mph /  4.5km/h 5mph /  8km/h 60.4% 0.00in /  0mm 23 W/m2
18:04 59.4 °F /  15.2 °C 45.7 °F /  7.6 °C 30.23in /  1023.6hPa NNW 3.2mph /  5.1km/h 5mph /  8km/h 60.4% 0.00in /  0mm 19 W/m2
18:09 58.9 °F /  14.9 °C 45.8 °F /  7.7 °C 30.23in /  1023.6hPa North 1.7mph /  2.7km/h 4mph /  6.4km/h 61.6% 0.00in /  0mm 16 W/m2
18:14 58.6 °F /  14.8 °C 45.8 °F /  7.7 °C 30.24in /  1023.9hPa North 1.2mph /  1.9km/h 2mph /  3.2km/h 62.4% 0.00in /  0mm 14 W/m2
18:19 58.5 °F /  14.7 °C 46 °F /  7.8 °C 30.24in /  1023.9hPa North 1.5mph /  2.4km/h 3mph /  4.8km/h 63.2% 0.00in /  0mm 11 W/m2
18:24 58.4 °F /  14.7 °C 46.9 °F /  8.3 °C 30.24in /  1023.9hPa North 0.4mph /  0.6km/h 2mph /  3.2km/h 65.6% 0.00in /  0mm 9 W/m2
18:29 57.7 °F /  14.3 °C 46.4 °F /  8 °C 30.24in /  1023.9hPa North 1.8mph /  2.9km/h 3mph /  4.8km/h 66% 0.00in /  0mm 5 W/m2
18:34 57 °F /  13.9 °C 46.2 °F /  7.9 °C 30.25in /  1024.3hPa North 1mph /  1.6km/h 3mph /  4.8km/h 67% 0.00in /  0mm 0 W/m2
18:39 57.2 °F /  14 °C 47.4 °F /  8.6 °C 30.25in /  1024.3hPa North 0.6mph /  1km/h 3mph /  4.8km/h 69.6% 0.00in /  0mm 0 W/m2
18:44 56.6 °F /  13.7 °C 46.2 °F /  7.9 °C 30.25in /  1024.3hPa North 0.4mph /  0.6km/h 2mph /  3.2km/h 68.2% 0.00in /  0mm 0 W/m2
18:49 55.7 °F /  13.2 °C 46 °F /  7.8 °C 30.25in /  1024.3hPa Calm   1mph /  1.6km/h 70% 0.00in /  0mm 0 W/m2
18:54 55.2 °F /  12.9 °C 46 °F /  7.8 °C 30.26in /  1024.6hPa North 0.6mph /  1km/h 2mph /  3.2km/h 71% 0.00in /  0mm 0 W/m2
18:59 54.2 °F /  12.3 °C 45.3 °F /  7.4 °C 30.26in /  1024.6hPa North 0.2mph /  0.3km/h 2mph /  3.2km/h 71.8% 0.00in /  0mm 0 W/m2
19:04 53.6 °F /  12 °C 45.4 °F /  7.4 °C 30.26in /  1024.6hPa North 0.5mph /  0.8km/h 2mph /  3.2km/h 73.6% 0.00in /  0mm 0 W/m2
19:09 54 °F /  12.2 °C 46.1 °F /  7.8 °C 30.27in /  1024.9hPa North 0.5mph /  0.8km/h 2mph /  3.2km/h 74.6% 0.00in /  0mm 0 W/m2
19:14 53 °F /  11.7 °C 44.9 °F /  7.2 °C 30.27in /  1024.9hPa North 0.5mph /  0.8km/h 2mph /  3.2km/h 74% 0.00in /  0mm 0 W/m2
19:19 52 °F /  11.1 °C 44.2 °F /  6.8 °C 30.27in /  1024.9hPa North 0.4mph /  0.6km/h 1mph /  1.6km/h 74.8% 0.00in /  0mm 0 W/m2
19:24 51.6 °F /  10.9 °C 44.2 °F /  6.8 °C 30.27in /  1024.9hPa North 0.8mph /  1.3km/h 2mph /  3.2km/h 76% 0.00in /  0mm 0 W/m2
19:29 51.7 °F /  10.9 °C 44.4 °F /  6.9 °C 30.27in /  1024.9hPa North 1.6mph /  2.6km/h 2mph /  3.2km/h 76.2% 0.00in /  0mm 0 W/m2
19:34 51.1 °F /  10.6 °C 43.9 °F /  6.6 °C 30.27in /  1024.9hPa North 1.1mph /  1.8km/h 2mph /  3.2km/h 76.6% 0.00in /  0mm 0 W/m2
19:39 50.3 °F /  10.2 °C 43.3 °F /  6.3 °C 30.27in /  1024.9hPa North 1.2mph /  1.9km/h 2mph /  3.2km/h 77% 0.00in /  0mm 0 W/m2
19:44 50.1 °F /  10.1 °C 43.3 °F /  6.3 °C 30.27in /  1024.9hPa North 0.6mph /  1km/h 2mph /  3.2km/h 77.2% 0.00in /  0mm 0 W/m2
19:49 50.8 °F /  10.4 °C 44.2 °F /  6.8 °C 30.28in /  1025.3hPa North 0.4mph /  0.6km/h 2mph /  3.2km/h 78% 0.00in /  0mm 0 W/m2
19:54 50.7 °F /  10.4 °C 44 °F /  6.7 °C 30.28in /  1025.3hPa Calm   2mph /  3.2km/h 77.8% 0.00in /  0mm 0 W/m2
19:59 50.5 °F /  10.3 °C 43.9 °F /  6.6 °C 30.28in /  1025.3hPa Calm     78% 0.00in /  0mm 0 W/m2
20:04 50.4 °F /  10.2 °C 43.7 °F /  6.5 °C 30.29in /  1025.6hPa Calm     78% 0.00in /  0mm 0 W/m2
20:09 50.4 °F /  10.2 °C 43.7 °F /  6.5 °C 30.29in /  1025.6hPa Calm     78% 0.00in /  0mm 0 W/m2
20:14 50.4 °F /  10.2 °C 43.7 °F /  6.5 °C 30.29in /  1025.6hPa Calm     78% 0.00in /  0mm 0 W/m2
20:19 50.3 °F /  10.2 °C 43.6 °F /  6.4 °C 30.29in /  1025.6hPa Calm     78% 0.00in /  0mm 0 W/m2
20:24 49.8 °F /  9.9 °C 43.2 °F /  6.2 °C 30.29in /  1025.6hPa Calm     78% 0.00in /  0mm 0 W/m2
20:29 49.4 °F /  9.7 °C 42.8 °F /  6 °C 30.29in /  1025.6hPa Calm     78% 0.00in /  0mm 0 W/m2
20:34 49.4 °F /  9.7 °C 42.8 °F /  6 °C 30.29in /  1025.6hPa Calm     78% 0.00in /  0mm 0 W/m2
20:39 48.9 °F /  9.4 °C 42.5 °F /  5.8 °C 30.29in /  1025.6hPa Calm     78.2% 0.00in /  0mm 0 W/m2
20:44 48.6 °F /  9.2 °C 42.1 °F /  5.6 °C 30.30in /  1026hPa Calm     78% 0.00in /  0mm 0 W/m2
20:49 48.6 °F /  9.2 °C 42.3 °F /  5.7 °C 30.30in /  1026hPa North 0.4mph /  0.6km/h 2mph /  3.2km/h 78.8% 0.00in /  0mm 0 W/m2
20:54 48.3 °F /  9.1 °C 42.2 °F /  5.7 °C 30.30in /  1026hPa North 0.2mph /  0.3km/h 2mph /  3.2km/h 79% 0.00in /  0mm 0 W/m2
20:59 48 °F /  8.9 °C 41.9 °F /  5.5 °C 30.30in /  1026hPa Calm   1mph /  1.6km/h 79% 0.00in /  0mm 0 W/m2
21:04 48 °F /  8.9 °C 41.9 °F /  5.5 °C 30.30in /  1026hPa North 0.4mph /  0.6km/h 1mph /  1.6km/h 79.2% 0.00in /  0mm 0 W/m2
21:09 47.6 °F /  8.7 °C 41.6 °F /  5.3 °C 30.31in /  1026.3hPa North 0.4mph /  0.6km/h 1mph /  1.6km/h 80% 0.00in /  0mm 0 W/m2
21:14 47.5 °F /  8.6 °C 41.5 °F /  5.3 °C 30.31in /  1026.3hPa Calm     80% 0.00in /  0mm 0 W/m2
21:19 47.1 °F /  8.4 °C 41.4 °F /  5.2 °C 30.31in /  1026.3hPa North 0.9mph /  1.4km/h 2mph /  3.2km/h 80.6% 0.00in /  0mm 0 W/m2
21:24 46.8 °F /  8.2 °C 41.2 °F /  5.1 °C 30.32in /  1026.6hPa North 0.9mph /  1.4km/h 2mph /  3.2km/h 81% 0.00in /  0mm 0 W/m2
21:29 46.6 °F /  8.1 °C 41.2 °F /  5.1 °C 30.32in /  1026.6hPa North 0.2mph /  0.3km/h 1mph /  1.6km/h 81.4% 0.00in /  0mm 0 W/m2
21:34 46.7 °F /  8.2 °C 41.4 °F /  5.2 °C 30.32in /  1026.6hPa Calm   1mph /  1.6km/h 82% 0.00in /  0mm 0 W/m2
21:39 46.3 °F /  7.9 °C 41.2 °F /  5.1 °C 30.32in /  1026.6hPa Calm     82.2% 0.00in /  0mm 0 W/m2
21:44 46.2 °F /  7.9 °C 41.4 °F /  5.2 °C 30.32in /  1026.6hPa North 0.2mph /  0.3km/h 2mph /  3.2km/h 83% 0.00in /  0mm 0 W/m2
21:49 46.2 °F /  7.9 °C 41.4 °F /  5.2 °C 30.32in /  1026.6hPa North 0.4mph /  0.6km/h 2mph /  3.2km/h 83% 0.00in /  0mm 0 W/m2
21:54 46.1 °F /  7.8 °C 41.3 °F /  5.2 °C 30.32in /  1026.6hPa Calm   1mph /  1.6km/h 83% 0.00in /  0mm 0 W/m2
21:59 45.9 °F /  7.7 °C 41.1 °F /  5.1 °C 30.32in /  1026.6hPa Calm     83% 0.00in /  0mm 0 W/m2
22:04 45.7 °F /  7.6 °C 40.8 °F /  4.9 °C 30.32in /  1026.6hPa Calm     83% 0.00in /  0mm 0 W/m2
22:09 45.3 °F /  7.4 °C 40.6 °F /  4.8 °C 30.33in /  1027hPa Calm     83.6% 0.00in /  0mm 0 W/m2
22:14 45 °F /  7.2 °C 40.5 °F /  4.7 °C 30.33in /  1027hPa Calm     84% 0.00in /  0mm 0 W/m2
22:19 44.9 °F /  7.2 °C 40.4 °F /  4.7 °C 30.33in /  1027hPa Calm   1mph /  1.6km/h 84% 0.00in /  0mm 0 W/m2
22:24 45 °F /  7.2 °C 40.5 °F /  4.7 °C 30.34in /  1027.3hPa Calm     84.4% 0.00in /  0mm 0 W/m2
22:29 44.8 °F /  7.1 °C 40.5 °F /  4.7 °C 30.34in /  1027.3hPa North 0.2mph /  0.3km/h 1mph /  1.6km/h 85% 0.00in /  0mm 0 W/m2
22:34 44.5 °F /  6.9 °C 40.4 °F /  4.7 °C 30.34in /  1027.3hPa Calm   1mph /  1.6km/h 85% 0.00in /  0mm 0 W/m2
22:39 44.4 °F /  6.9 °C 40.3 °F /  4.6 °C 30.34in /  1027.3hPa Calm   1mph /  1.6km/h 85% 0.00in /  0mm 0 W/m2
22:43 44.4 °F /  6.9 °C 40.3 °F /  4.6 °C 30.34in /  1027.3hPa North 0.2mph /  0.3km/h 1mph /  1.6km/h 85% 0.00in /  0mm 0 W/m2
22:49 44.2 °F /  6.8 °C 40.1 °F /  4.5 °C 30.34in /  1027.3hPa Calm   1mph /  1.6km/h 85% 0.00in /  0mm 0 W/m2
22:54 43.9 °F /  6.6 °C 39.8 °F /  4.3 °C 30.34in /  1027.3hPa Calm     85.4% 0.00in /  0mm 0 W/m2
22:59 43.9 °F /  6.6 °C 39.9 °F /  4.4 °C 30.34in /  1027.3hPa Calm     86% 0.00in /  0mm 0 W/m2
23:04 43.7 °F /  6.5 °C 39.7 °F /  4.3 °C 30.35in /  1027.7hPa Calm     86% 0.00in /  0mm 0 W/m2
23:09 43.3 °F /  6.3 °C 39.4 °F /  4.1 °C 30.35in /  1027.7hPa Calm     86% 0.00in /  0mm 0 W/m2
23:14 43.3 °F /  6.3 °C 39.4 °F /  4.1 °C 30.35in /  1027.7hPa Calm     86% 0.00in /  0mm 0 W/m2
23:19 43.2 °F /  6.2 °C 39.3 °F /  4.1 °C 30.35in /  1027.7hPa Calm     86% 0.00in /  0mm 0 W/m2
23:24 43.2 °F /  6.2 °C 39.2 °F /  4 °C 30.35in /  1027.7hPa Calm   1mph /  1.6km/h 86% 0.00in /  0mm 0 W/m2
23:29 43.2 °F /  6.2 °C 39.5 °F /  4.2 °C 30.35in /  1027.7hPa Calm     86.8% 0.00in /  0mm 0 W/m2
23:34 43.2 °F /  6.2 °C 39.6 °F /  4.2 °C 30.35in /  1027.7hPa Calm     87% 0.00in /  0mm 0 W/m2
23:39 43 °F /  6.1 °C 39.4 °F /  4.1 °C 30.35in /  1027.7hPa Calm     87% 0.00in /  0mm 0 W/m2
23:44 42.9 °F /  6.1 °C 39.3 °F /  4.1 °C 30.35in /  1027.7hPa Calm     87% 0.00in /  0mm 0 W/m2
23:49 42.7 °F /  5.9 °C 39.1 °F /  3.9 °C 30.35in /  1027.7hPa Calm     87% 0.00in /  0mm 0 W/m2
23:54 42.5 °F /  5.8 °C 38.9 °F /  3.8 °C 30.35in /  1027.7hPa Calm     87% 0.00in /  0mm 0 W/m2
23:59 42.4 °F /  5.8 °C 38.8 °F /  3.8 °C 30.35in /  1027.7hPa Calm     87% 0.00in /  0mm 0 W/m2
Bath Spa Weather
Compliments of Weather Underground - 2 mb